sensor_id;sensor_type;location;lat;lon;timestamp;temperature;humidity
32476;DHT22;18929;48.008;10.882;2022-11-15T00:00:30;8.20;99.90
32476;DHT22;18929;48.008;10.882;2022-11-15T00:02:57;8.20;99.90
32476;DHT22;18929;48.008;10.882;2022-11-15T00:05:24;8.10;99.90
32476;DHT22;18929;48.008;10.882;2022-11-15T00:07:51;8.10;99.90
32476;DHT22;18929;48.008;10.882;2022-11-15T00:10:18;8.10;99.90
32476;DHT22;18929;48.008;10.882;2022-11-15T00:12:46;8.10;99.90
32476;DHT22;18929;48.008;10.882;2022-11-15T00:15:14;8.20;99.90
32476;DHT22;18929;48.008;10.882;2022-11-15T00:17:41;8.20;99.90
32476;DHT22;18929;48.008;10.882;2022-11-15T00:20:09;8.10;99.90
32476;DHT22;18929;48.008;10.882;2022-11-15T00:22:37;8.10;99.90
32476;DHT22;18929;48.008;10.882;2022-11-15T00:25:24;8.10;99.90
32476;DHT22;18929;48.008;10.882;2022-11-15T00:27:56;8.00;99.90
32476;DHT22;18929;48.008;10.882;2022-11-15T00:30:23;8.00;99.90
32476;DHT22;18929;48.008;10.882;2022-11-15T00:32:50;8.00;99.90
32476;DHT22;18929;48.008;10.882;2022-11-15T00:35:17;8.00;99.90
32476;DHT22;18929;48.008;10.882;2022-11-15T00:37:44;8.00;99.90
32476;DHT22;18929;48.008;10.882;2022-11-15T00:40:13;8.00;99.90
32476;DHT22;18929;48.008;10.882;2022-11-15T00:42:40;7.90;99.90
32476;DHT22;18929;48.008;10.882;2022-11-15T00:45:09;7.90;99.90
32476;DHT22;18929;48.008;10.882;2022-11-15T00:47:36;7.80;99.90
32476;DHT22;18929;48.008;10.882;2022-11-15T00:50:04;7.80;99.90
32476;DHT22;18929;48.008;10.882;2022-11-15T00:52:31;7.80;99.90
32476;DHT22;18929;48.008;10.882;2022-11-15T00:54:58;7.80;99.90
32476;DHT22;18929;48.008;10.882;2022-11-15T00:57:25;7.80;99.90
32476;DHT22;18929;48.008;10.882;2022-11-15T00:59:53;7.80;99.90
32476;DHT22;18929;48.008;10.882;2022-11-15T01:02:22;7.80;99.90
32476;DHT22;18929;48.008;10.882;2022-11-15T01:04:49;7.90;99.90
32476;DHT22;18929;48.008;10.882;2022-11-15T01:07:15;7.90;99.90
32476;DHT22;18929;48.008;10.882;2022-11-15T01:09:42;7.90;99.90
32476;DHT22;18929;48.008;10.882;2022-11-15T01:12:09;7.80;99.90
32476;DHT22;18929;48.008;10.882;2022-11-15T01:14:36;7.80;99.90
32476;DHT22;18929;48.008;10.882;2022-11-15T01:17:03;7.80;99.90
32476;DHT22;18929;48.008;10.882;2022-11-15T01:19:32;7.80;99.90
32476;DHT22;18929;48.008;10.882;2022-11-15T01:21:59;7.50;99.90
32476;DHT22;18929;48.008;10.882;2022-11-15T01:24:26;7.70;99.90
32476;DHT22;18929;48.008;10.882;2022-11-15T01:26:53;7.70;99.90
32476;DHT22;18929;48.008;10.882;2022-11-15T01:29:20;7.80;99.90
32476;DHT22;18929;48.008;10.882;2022-11-15T01:31:47;7.80;99.90
32476;DHT22;18929;48.008;10.882;2022-11-15T01:34:14;7.60;99.90
32476;DHT22;18929;48.008;10.882;2022-11-15T01:36:42;7.40;99.90
32476;DHT22;18929;48.008;10.882;2022-11-15T01:39:09;7.30;99.90
32476;DHT22;18929;48.008;10.882;2022-11-15T01:41:36;7.50;99.90
32476;DHT22;18929;48.008;10.882;2022-11-15T01:44:37;7.50;99.90
32476;DHT22;18929;48.008;10.882;2022-11-15T01:47:08;7.50;99.90
32476;DHT22;18929;48.008;10.882;2022-11-15T01:49:40;7.50;99.90
32476;DHT22;18929;48.008;10.882;2022-11-15T01:52:13;7.40;99.90
32476;DHT22;18929;48.008;10.882;2022-11-15T01:54:41;7.30;99.90
32476;DHT22;18929;48.008;10.882;2022-11-15T01:57:10;7.00;99.90
32476;DHT22;18929;48.008;10.882;2022-11-15T01:59:40;7.00;99.90
32476;DHT22;18929;48.008;10.882;2022-11-15T02:02:09;7.00;99.90
32476;DHT22;18929;48.008;10.882;2022-11-15T02:04:39;7.20;99.90
32476;DHT22;18929;48.008;10.882;2022-11-15T02:07:10;7.10;99.90
32476;DHT22;18929;48.008;10.882;2022-11-15T02:09:38;7.40;99.90
32476;DHT22;18929;48.008;10.882;2022-11-15T02:12:07;7.50;99.90
32476;DHT22;18929;48.008;10.882;2022-11-15T02:14:36;7.40;99.90
32476;DHT22;18929;48.008;10.882;2022-11-15T02:17:16;7.50;99.90
32476;DHT22;18929;48.008;10.882;2022-11-15T02:20:08;7.60;99.90
32476;DHT22;18929;48.008;10.882;2022-11-15T02:22:51;7.40;99.90
32476;DHT22;18929;48.008;10.882;2022-11-15T02:25:37;7.40;99.90
32476;DHT22;18929;48.008;10.882;2022-11-15T02:28:21;7.50;99.90
32476;DHT22;18929;48.008;10.882;2022-11-15T02:31:00;7.40;99.90
32476;DHT22;18929;48.008;10.882;2022-11-15T02:33:38;7.30;99.90
32476;DHT22;18929;48.008;10.882;2022-11-15T02:36:12;7.30;99.90
32476;DHT22;18929;48.008;10.882;2022-11-15T02:38:49;7.30;99.90
32476;DHT22;18929;48.008;10.882;2022-11-15T02:41:25;7.40;99.90
32476;DHT22;18929;48.008;10.882;2022-11-15T02:43:59;7.30;99.90
32476;DHT22;18929;48.008;10.882;2022-11-15T02:46:30;7.20;99.90
32476;DHT22;18929;48.008;10.882;2022-11-15T02:49:16;7.30;99.90
32476;DHT22;18929;48.008;10.882;2022-11-15T02:51:45;7.30;99.90
32476;DHT22;18929;48.008;10.882;2022-11-15T02:54:17;7.30;99.90
32476;DHT22;18929;48.008;10.882;2022-11-15T02:56:46;7.20;99.90
32476;DHT22;18929;48.008;10.882;2022-11-15T02:59:20;7.10;99.90
32476;DHT22;18929;48.008;10.882;2022-11-15T03:02:01;7.00;99.90
32476;DHT22;18929;48.008;10.882;2022-11-15T03:04:37;7.00;99.90
32476;DHT22;18929;48.008;10.882;2022-11-15T03:07:11;7.00;99.90
32476;DHT22;18929;48.008;10.882;2022-11-15T03:09:45;7.10;99.90
32476;DHT22;18929;48.008;10.882;2022-11-15T03:12:22;7.20;99.90
32476;DHT22;18929;48.008;10.882;2022-11-15T03:14:56;7.10;99.90
32476;DHT22;18929;48.008;10.882;2022-11-15T03:17:29;7.10;99.90
32476;DHT22;18929;48.008;10.882;2022-11-15T03:19:59;7.20;99.90
32476;DHT22;18929;48.008;10.882;2022-11-15T03:22:30;7.00;99.90
32476;DHT22;18929;48.008;10.882;2022-11-15T03:25:04;7.00;99.90
32476;DHT22;18929;48.008;10.882;2022-11-15T03:27:37;6.90;99.90
32476;DHT22;18929;48.008;10.882;2022-11-15T03:30:07;6.90;99.90
32476;DHT22;18929;48.008;10.882;2022-11-15T03:32:40;7.00;99.90
32476;DHT22;18929;48.008;10.882;2022-11-15T03:35:12;7.00;99.90
32476;DHT22;18929;48.008;10.882;2022-11-15T03:37:44;7.00;99.90
32476;DHT22;18929;48.008;10.882;2022-11-15T03:40:12;6.90;99.90
32476;DHT22;18929;48.008;10.882;2022-11-15T03:42:43;6.90;99.90
32476;DHT22;18929;48.008;10.882;2022-11-15T03:45:15;6.90;99.90
32476;DHT22;18929;48.008;10.882;2022-11-15T03:47:48;6.90;99.90
32476;DHT22;18929;48.008;10.882;2022-11-15T03:50:18;6.80;99.90
32476;DHT22;18929;48.008;10.882;2022-11-15T03:52:47;6.80;99.90
32476;DHT22;18929;48.008;10.882;2022-11-15T03:55:17;6.80;99.90
32476;DHT22;18929;48.008;10.882;2022-11-15T03:57:45;6.90;99.90
32476;DHT22;18929;48.008;10.882;2022-11-15T04:00:13;6.80;99.90
32476;DHT22;18929;48.008;10.882;2022-11-15T04:02:40;6.70;99.90
32476;DHT22;18929;48.008;10.882;2022-11-15T04:05:08;6.80;99.90
32476;DHT22;18929;48.008;10.882;2022-11-15T04:07:35;6.80;99.90
32476;DHT22;18929;48.008;10.882;2022-11-15T04:10:03;6.80;99.90
32476;DHT22;18929;48.008;10.882;2022-11-15T04:12:31;6.70;99.90
32476;DHT22;18929;48.008;10.882;2022-11-15T04:15:00;6.80;99.90
32476;DHT22;18929;48.008;10.882;2022-11-15T04:17:38;6.80;99.90
32476;DHT22;18929;48.008;10.882;2022-11-15T04:20:10;6.70;99.90
32476;DHT22;18929;48.008;10.882;2022-11-15T04:22:56;6.60;99.90
32476;DHT22;18929;48.008;10.882;2022-11-15T04:25:41;6.60;99.90
32476;DHT22;18929;48.008;10.882;2022-11-15T04:28:09;6.60;99.90
32476;DHT22;18929;48.008;10.882;2022-11-15T04:30:37;6.60;99.90
32476;DHT22;18929;48.008;10.882;2022-11-15T04:33:04;6.60;99.90
32476;DHT22;18929;48.008;10.882;2022-11-15T04:35:32;6.50;99.90
32476;DHT22;18929;48.008;10.882;2022-11-15T04:38:00;6.60;99.90
32476;DHT22;18929;48.008;10.882;2022-11-15T04:40:26;6.60;99.90
32476;DHT22;18929;48.008;10.882;2022-11-15T04:42:53;6.60;99.90
32476;DHT22;18929;48.008;10.882;2022-11-15T04:45:20;6.60;99.90
32476;DHT22;18929;48.008;10.882;2022-11-15T04:47:47;6.60;99.90
32476;DHT22;18929;48.008;10.882;2022-11-15T04:50:15;6.40;99.90
32476;DHT22;18929;48.008;10.882;2022-11-15T04:52:50;6.50;99.90
32476;DHT22;18929;48.008;10.882;2022-11-15T04:55:17;6.60;99.90
32476;DHT22;18929;48.008;10.882;2022-11-15T04:57:44;6.50;99.90
32476;DHT22;18929;48.008;10.882;2022-11-15T05:00:14;6.50;99.90
32476;DHT22;18929;48.008;10.882;2022-11-15T05:02:41;6.50;99.90
32476;DHT22;18929;48.008;10.882;2022-11-15T05:05:25;6.50;99.90
32476;DHT22;18929;48.008;10.882;2022-11-15T05:07:54;6.40;99.90
32476;DHT22;18929;48.008;10.882;2022-11-15T05:10:21;6.40;99.90
32476;DHT22;18929;48.008;10.882;2022-11-15T05:12:48;6.30;99.90
32476;DHT22;18929;48.008;10.882;2022-11-15T05:15:16;6.30;99.90
32476;DHT22;18929;48.008;10.882;2022-11-15T05:17:43;6.40;99.90
32476;DHT22;18929;48.008;10.882;2022-11-15T05:20:10;6.40;99.90
32476;DHT22;18929;48.008;10.882;2022-11-15T05:22:37;6.30;99.90
32476;DHT22;18929;48.008;10.882;2022-11-15T05:25:07;6.10;99.90
32476;DHT22;18929;48.008;10.882;2022-11-15T05:27:34;6.10;99.90
32476;DHT22;18929;48.008;10.882;2022-11-15T05:30:02;6.20;99.90
32476;DHT22;18929;48.008;10.882;2022-11-15T05:32:29;6.30;99.90
32476;DHT22;18929;48.008;10.882;2022-11-15T05:34:56;6.30;99.90
32476;DHT22;18929;48.008;10.882;2022-11-15T05:37:23;6.30;99.90
32476;DHT22;18929;48.008;10.882;2022-11-15T05:39:50;6.40;99.90
32476;DHT22;18929;48.008;10.882;2022-11-15T05:42:18;6.40;99.90
32476;DHT22;18929;48.008;10.882;2022-11-15T05:44:47;6.30;99.90
32476;DHT22;18929;48.008;10.882;2022-11-15T05:47:19;6.30;99.90
32476;DHT22;18929;48.008;10.882;2022-11-15T05:49:48;6.40;99.90
32476;DHT22;18929;48.008;10.882;2022-11-15T05:52:20;6.30;99.90
32476;DHT22;18929;48.008;10.882;2022-11-15T05:54:48;6.40;99.90
32476;DHT22;18929;48.008;10.882;2022-11-15T05:57:15;6.40;99.90
32476;DHT22;18929;48.008;10.882;2022-11-15T05:59:44;6.30;99.90
32476;DHT22;18929;48.008;10.882;2022-11-15T06:02:11;6.00;99.90
32476;DHT22;18929;48.008;10.882;2022-11-15T06:04:38;6.20;99.90
32476;DHT22;18929;48.008;10.882;2022-11-15T06:07:05;6.20;99.90
32476;DHT22;18929;48.008;10.882;2022-11-15T06:09:32;6.30;99.90
32476;DHT22;18929;48.008;10.882;2022-11-15T06:12:04;6.30;99.90
32476;DHT22;18929;48.008;10.882;2022-11-15T06:14:31;5.80;99.90
32476;DHT22;18929;48.008;10.882;2022-11-15T06:16:59;5.90;99.90
32476;DHT22;18929;48.008;10.882;2022-11-15T06:19:27;6.00;99.90
32476;DHT22;18929;48.008;10.882;2022-11-15T06:21:58;6.20;99.90
32476;DHT22;18929;48.008;10.882;2022-11-15T06:24:25;6.20;99.90
32476;DHT22;18929;48.008;10.882;2022-11-15T06:26:52;6.10;99.90
32476;DHT22;18929;48.008;10.882;2022-11-15T06:29:19;5.80;99.90
32476;DHT22;18929;48.008;10.882;2022-11-15T06:31:47;6.10;99.90
32476;DHT22;18929;48.008;10.882;2022-11-15T06:34:15;6.10;99.90
32476;DHT22;18929;48.008;10.882;2022-11-15T06:36:42;6.20;99.90
32476;DHT22;18929;48.008;10.882;2022-11-15T06:39:09;6.10;99.90
32476;DHT22;18929;48.008;10.882;2022-11-15T06:41:36;5.90;99.90
32476;DHT22;18929;48.008;10.882;2022-11-15T06:44:03;5.80;99.90
32476;DHT22;18929;48.008;10.882;2022-11-15T06:46:30;5.80;99.90
32476;DHT22;18929;48.008;10.882;2022-11-15T06:48:58;6.00;99.90
32476;DHT22;18929;48.008;10.882;2022-11-15T06:51:26;5.50;99.90
32476;DHT22;18929;48.008;10.882;2022-11-15T06:53:53;5.80;99.90
32476;DHT22;18929;48.008;10.882;2022-11-15T06:56:20;5.90;99.90
32476;DHT22;18929;48.008;10.882;2022-11-15T06:58:49;6.00;99.90
32476;DHT22;18929;48.008;10.882;2022-11-15T07:01:15;6.10;99.90
32476;DHT22;18929;48.008;10.882;2022-11-15T07:03:43;6.00;99.90
32476;DHT22;18929;48.008;10.882;2022-11-15T07:06:11;6.00;99.90
32476;DHT22;18929;48.008;10.882;2022-11-15T07:08:40;5.90;99.90
32476;DHT22;18929;48.008;10.882;2022-11-15T07:11:08;5.90;99.90
32476;DHT22;18929;48.008;10.882;2022-11-15T07:13:35;6.00;99.90
32476;DHT22;18929;48.008;10.882;2022-11-15T07:16:04;5.50;99.90
32476;DHT22;18929;48.008;10.882;2022-11-15T07:18:33;5.80;99.90
32476;DHT22;18929;48.008;10.882;2022-11-15T07:21:01;5.90;99.90
32476;DHT22;18929;48.008;10.882;2022-11-15T07:23:29;5.90;99.90
32476;DHT22;18929;48.008;10.882;2022-11-15T07:26:11;5.90;99.90
32476;DHT22;18929;48.008;10.882;2022-11-15T07:28:38;5.80;99.90
32476;DHT22;18929;48.008;10.882;2022-11-15T07:31:07;6.00;99.90
32476;DHT22;18929;48.008;10.882;2022-11-15T07:33:34;6.00;99.90
32476;DHT22;18929;48.008;10.882;2022-11-15T07:36:04;6.00;99.90
32476;DHT22;18929;48.008;10.882;2022-11-15T07:38:31;5.80;99.90
32476;DHT22;18929;48.008;10.882;2022-11-15T07:41:00;5.60;99.90
32476;DHT22;18929;48.008;10.882;2022-11-15T07:43:29;5.70;99.90
32476;DHT22;18929;48.008;10.882;2022-11-15T07:45:58;5.70;99.90
32476;DHT22;18929;48.008;10.882;2022-11-15T07:48:39;5.80;99.90
32476;DHT22;18929;48.008;10.882;2022-11-15T07:51:06;6.10;99.90
32476;DHT22;18929;48.008;10.882;2022-11-15T07:53:51;6.30;99.90
32476;DHT22;18929;48.008;10.882;2022-11-15T07:56:18;6.20;99.90
32476;DHT22;18929;48.008;10.882;2022-11-15T07:58:47;5.90;99.90
32476;DHT22;18929;48.008;10.882;2022-11-15T08:01:15;5.70;99.90
32476;DHT22;18929;48.008;10.882;2022-11-15T08:03:43;5.70;99.90
32476;DHT22;18929;48.008;10.882;2022-11-15T08:06:10;5.30;99.90
32476;DHT22;18929;48.008;10.882;2022-11-15T08:08:37;5.50;99.90
32476;DHT22;18929;48.008;10.882;2022-11-15T08:11:04;5.80;99.90
32476;DHT22;18929;48.008;10.882;2022-11-15T08:13:31;5.90;99.90
32476;DHT22;18929;48.008;10.882;2022-11-15T08:16:02;6.00;99.90
32476;DHT22;18929;48.008;10.882;2022-11-15T08:18:31;6.20;99.90
32476;DHT22;18929;48.008;10.882;2022-11-15T08:20:59;6.00;99.90
32476;DHT22;18929;48.008;10.882;2022-11-15T08:23:26;6.10;99.90
32476;DHT22;18929;48.008;10.882;2022-11-15T08:25:59;6.40;99.90
32476;DHT22;18929;48.008;10.882;2022-11-15T08:28:26;6.50;99.90
32476;DHT22;18929;48.008;10.882;2022-11-15T08:30:53;6.30;99.90
32476;DHT22;18929;48.008;10.882;2022-11-15T08:33:21;6.00;99.90
32476;DHT22;18929;48.008;10.882;2022-11-15T08:35:48;6.00;99.90
32476;DHT22;18929;48.008;10.882;2022-11-15T08:38:24;6.30;99.90
32476;DHT22;18929;48.008;10.882;2022-11-15T08:40:52;6.40;99.90
32476;DHT22;18929;48.008;10.882;2022-11-15T08:43:20;6.30;99.90
32476;DHT22;18929;48.008;10.882;2022-11-15T08:45:47;6.10;99.90
32476;DHT22;18929;48.008;10.882;2022-11-15T08:48:14;6.10;99.90
32476;DHT22;18929;48.008;10.882;2022-11-15T08:50:42;6.30;99.90
32476;DHT22;18929;48.008;10.882;2022-11-15T08:53:10;6.30;99.90
32476;DHT22;18929;48.008;10.882;2022-11-15T08:55:38;6.40;99.90
32476;DHT22;18929;48.008;10.882;2022-11-15T08:58:05;6.50;99.90
32476;DHT22;18929;48.008;10.882;2022-11-15T09:00:32;6.80;99.90
32476;DHT22;18929;48.008;10.882;2022-11-15T09:03:01;7.00;99.90
32476;DHT22;18929;48.008;10.882;2022-11-15T09:05:29;7.00;99.90
32476;DHT22;18929;48.008;10.882;2022-11-15T09:07:58;7.10;99.90
32476;DHT22;18929;48.008;10.882;2022-11-15T09:10:25;7.20;99.90
32476;DHT22;18929;48.008;10.882;2022-11-15T09:12:52;7.30;99.90
32476;DHT22;18929;48.008;10.882;2022-11-15T09:15:19;7.30;99.90
32476;DHT22;18929;48.008;10.882;2022-11-15T09:17:46;7.40;99.90
32476;DHT22;18929;48.008;10.882;2022-11-15T09:20:28;7.30;99.90
32476;DHT22;18929;48.008;10.882;2022-11-15T09:23:00;7.30;99.90
32476;DHT22;18929;48.008;10.882;2022-11-15T09:25:28;7.40;99.90
32476;DHT22;18929;48.008;10.882;2022-11-15T09:27:56;7.50;99.90
32476;DHT22;18929;48.008;10.882;2022-11-15T09:30:23;7.60;99.90
32476;DHT22;18929;48.008;10.882;2022-11-15T09:32:50;7.80;99.90
32476;DHT22;18929;48.008;10.882;2022-11-15T09:35:17;8.00;99.90
32476;DHT22;18929;48.008;10.882;2022-11-15T09:37:44;8.00;99.90
32476;DHT22;18929;48.008;10.882;2022-11-15T09:40:16;8.10;99.90
32476;DHT22;18929;48.008;10.882;2022-11-15T09:43:03;8.10;99.90
32476;DHT22;18929;48.008;10.882;2022-11-15T09:45:37;8.30;99.90
32476;DHT22;18929;48.008;10.882;2022-11-15T09:48:25;8.60;99.90
32476;DHT22;18929;48.008;10.882;2022-11-15T09:50:53;8.70;99.90
32476;DHT22;18929;48.008;10.882;2022-11-15T09:53:34;8.80;99.90
32476;DHT22;18929;48.008;10.882;2022-11-15T09:56:13;8.90;99.90
32476;DHT22;18929;48.008;10.882;2022-11-15T09:58:46;9.10;99.90
32476;DHT22;18929;48.008;10.882;2022-11-15T10:01:41;9.30;99.90
32476;DHT22;18929;48.008;10.882;2022-11-15T10:04:11;9.30;99.90
32476;DHT22;18929;48.008;10.882;2022-11-15T10:06:42;9.20;99.90
32476;DHT22;18929;48.008;10.882;2022-11-15T10:09:14;9.20;99.90
32476;DHT22;18929;48.008;10.882;2022-11-15T10:11:43;9.10;99.90
32476;DHT22;18929;48.008;10.882;2022-11-15T10:17:27;9.10;99.90
32476;DHT22;18929;48.008;10.882;2022-11-15T10:20:14;9.00;99.90
32476;DHT22;18929;48.008;10.882;2022-11-15T10:22:46;9.30;99.90
32476;DHT22;18929;48.008;10.882;2022-11-15T10:25:20;9.90;99.90
32476;DHT22;18929;48.008;10.882;2022-11-15T10:28:13;10.10;99.90
32476;DHT22;18929;48.008;10.882;2022-11-15T10:30:42;9.90;99.90
32476;DHT22;18929;48.008;10.882;2022-11-15T10:33:18;9.80;99.90
32476;DHT22;18929;48.008;10.882;2022-11-15T10:35:47;9.70;99.90
32476;DHT22;18929;48.008;10.882;2022-11-15T10:38:14;9.60;99.90
32476;DHT22;18929;48.008;10.882;2022-11-15T10:40:41;10.00;99.90
32476;DHT22;18929;48.008;10.882;2022-11-15T10:43:17;10.30;99.90
32476;DHT22;18929;48.008;10.882;2022-11-15T10:45:45;10.10;99.90
32476;DHT22;18929;48.008;10.882;2022-11-15T10:48:24;9.60;99.90
32476;DHT22;18929;48.008;10.882;2022-11-15T10:50:52;10.00;99.90
32476;DHT22;18929;48.008;10.882;2022-11-15T10:53:27;10.40;99.90
32476;DHT22;18929;48.008;10.882;2022-11-15T10:55:59;10.60;99.90
32476;DHT22;18929;48.008;10.882;2022-11-15T10:58:34;10.70;99.90
32476;DHT22;18929;48.008;10.882;2022-11-15T11:01:16;10.60;99.90
32476;DHT22;18929;48.008;10.882;2022-11-15T11:03:44;10.60;99.90
32476;DHT22;18929;48.008;10.882;2022-11-15T11:06:13;10.60;99.90
32476;DHT22;18929;48.008;10.882;2022-11-15T11:08:54;10.60;99.90
32476;DHT22;18929;48.008;10.882;2022-11-15T11:11:21;10.60;99.90
32476;DHT22;18929;48.008;10.882;2022-11-15T11:13:49;10.50;99.90
32476;DHT22;18929;48.008;10.882;2022-11-15T11:19:30;11.00;99.90
32476;DHT22;18929;48.008;10.882;2022-11-15T11:22:20;11.10;99.90
32476;DHT22;18929;48.008;10.882;2022-11-15T11:24:56;11.10;99.90
32476;DHT22;18929;48.008;10.882;2022-11-15T11:27:36;11.30;99.90
32476;DHT22;18929;48.008;10.882;2022-11-15T11:30:09;11.30;99.90
32476;DHT22;18929;48.008;10.882;2022-11-15T11:32:50;11.30;99.90
32476;DHT22;18929;48.008;10.882;2022-11-15T11:35:23;11.30;99.90
32476;DHT22;18929;48.008;10.882;2022-11-15T11:37:53;11.60;99.90
32476;DHT22;18929;48.008;10.882;2022-11-15T11:40:29;11.50;99.90
32476;DHT22;18929;48.008;10.882;2022-11-15T11:43:03;11.50;99.90
32476;DHT22;18929;48.008;10.882;2022-11-15T11:45:48;11.60;99.90
32476;DHT22;18929;48.008;10.882;2022-11-15T11:48:36;11.80;99.90
32476;DHT22;18929;48.008;10.882;2022-11-15T11:51:12;11.70;99.90
32476;DHT22;18929;48.008;10.882;2022-11-15T11:57:05;11.40;99.90
32476;DHT22;18929;48.008;10.882;2022-11-15T11:59:39;11.60;99.90
32476;DHT22;18929;48.008;10.882;2022-11-15T12:02:14;10.50;99.90
32476;DHT22;18929;48.008;10.882;2022-11-15T12:04:47;11.00;99.90
32476;DHT22;18929;48.008;10.882;2022-11-15T12:07:19;10.40;99.90
32476;DHT22;18929;48.008;10.882;2022-11-15T12:09:49;10.90;99.90
32476;DHT22;18929;48.008;10.882;2022-11-15T12:12:23;11.00;99.90
32476;DHT22;18929;48.008;10.882;2022-11-15T12:14:53;11.40;99.90
32476;DHT22;18929;48.008;10.882;2022-11-15T12:17:25;12.00;99.90
32476;DHT22;18929;48.008;10.882;2022-11-15T12:19:58;11.40;99.90
32476;DHT22;18929;48.008;10.882;2022-11-15T12:22:35;10.90;99.90
32476;DHT22;18929;48.008;10.882;2022-11-15T12:25:07;10.90;99.90
32476;DHT22;18929;48.008;10.882;2022-11-15T12:27:38;11.70;99.90
32476;DHT22;18929;48.008;10.882;2022-11-15T12:30:12;12.00;99.90
32476;DHT22;18929;48.008;10.882;2022-11-15T12:32:50;12.30;99.90
32476;DHT22;18929;48.008;10.882;2022-11-15T12:35:26;12.30;99.90
32476;DHT22;18929;48.008;10.882;2022-11-15T12:37:54;12.30;99.90
32476;DHT22;18929;48.008;10.882;2022-11-15T12:43:40;11.60;99.90
32476;DHT22;18929;48.008;10.882;2022-11-15T12:46:13;11.90;99.90
32476;DHT22;18929;48.008;10.882;2022-11-15T12:48:55;12.30;99.90
32476;DHT22;18929;48.008;10.882;2022-11-15T12:54:59;12.00;99.90
32476;DHT22;18929;48.008;10.882;2022-11-15T12:57:33;11.30;99.90
32476;DHT22;18929;48.008;10.882;2022-11-15T13:00:05;11.00;99.90
32476;DHT22;18929;48.008;10.882;2022-11-15T13:02:33;11.30;99.90
32476;DHT22;18929;48.008;10.882;2022-11-15T13:08:42;10.20;99.90
32476;DHT22;18929;48.008;10.882;2022-11-15T13:14:43;10.10;99.90
32476;DHT22;18929;48.008;10.882;2022-11-15T13:20:21;10.00;99.90
32476;DHT22;18929;48.008;10.882;2022-11-15T13:22:50;9.30;99.90
32476;DHT22;18929;48.008;10.882;2022-11-15T13:25:19;10.50;99.90
32476;DHT22;18929;48.008;10.882;2022-11-15T13:27:48;10.70;99.90
32476;DHT22;18929;48.008;10.882;2022-11-15T13:30:21;11.10;99.90
32476;DHT22;18929;48.008;10.882;2022-11-15T13:32:49;10.70;99.90
32476;DHT22;18929;48.008;10.882;2022-11-15T13:35:23;11.40;99.90
32476;DHT22;18929;48.008;10.882;2022-11-15T13:37:52;11.30;99.90
32476;DHT22;18929;48.008;10.882;2022-11-15T13:40:23;11.50;99.90
32476;DHT22;18929;48.008;10.882;2022-11-15T13:42:53;11.70;99.90
32476;DHT22;18929;48.008;10.882;2022-11-15T13:45:20;11.00;99.90
32476;DHT22;18929;48.008;10.882;2022-11-15T13:47:57;11.40;99.90
32476;DHT22;18929;48.008;10.882;2022-11-15T13:50:29;11.50;99.90
32476;DHT22;18929;48.008;10.882;2022-11-15T13:53:00;10.30;99.90
32476;DHT22;18929;48.008;10.882;2022-11-15T13:55:30;10.60;99.90
32476;DHT22;18929;48.008;10.882;2022-11-15T13:58:01;10.60;99.90
32476;DHT22;18929;48.008;10.882;2022-11-15T14:00:35;11.10;99.90
32476;DHT22;18929;48.008;10.882;2022-11-15T14:03:25;10.70;99.90
32476;DHT22;18929;48.008;10.882;2022-11-15T14:06:04;11.00;99.90
32476;DHT22;18929;48.008;10.882;2022-11-15T14:08:33;11.40;99.90
32476;DHT22;18929;48.008;10.882;2022-11-15T14:11:15;11.20;99.90
32476;DHT22;18929;48.008;10.882;2022-11-15T14:13:42;11.50;99.90
32476;DHT22;18929;48.008;10.882;2022-11-15T14:16:32;11.50;99.90
32476;DHT22;18929;48.008;10.882;2022-11-15T14:18:59;11.70;99.90
32476;DHT22;18929;48.008;10.882;2022-11-15T14:21:27;11.70;99.90
32476;DHT22;18929;48.008;10.882;2022-11-15T14:24:15;11.70;99.90
32476;DHT22;18929;48.008;10.882;2022-11-15T14:26:43;11.80;99.90
32476;DHT22;18929;48.008;10.882;2022-11-15T14:29:23;11.80;99.90
32476;DHT22;18929;48.008;10.882;2022-11-15T14:31:51;11.80;99.90
32476;DHT22;18929;48.008;10.882;2022-11-15T14:34:18;11.70;99.90
32476;DHT22;18929;48.008;10.882;2022-11-15T14:36:48;11.70;99.90
32476;DHT22;18929;48.008;10.882;2022-11-15T14:39:15;11.90;99.90
32476;DHT22;18929;48.008;10.882;2022-11-15T14:41:42;11.90;99.90
32476;DHT22;18929;48.008;10.882;2022-11-15T14:44:10;11.90;99.90
32476;DHT22;18929;48.008;10.882;2022-11-15T14:46:38;11.80;99.90
32476;DHT22;18929;48.008;10.882;2022-11-15T14:49:05;11.80;99.90
32476;DHT22;18929;48.008;10.882;2022-11-15T14:51:32;11.80;99.90
32476;DHT22;18929;48.008;10.882;2022-11-15T14:54:00;11.80;99.90
32476;DHT22;18929;48.008;10.882;2022-11-15T14:56:27;11.70;99.90
32476;DHT22;18929;48.008;10.882;2022-11-15T14:58:54;11.70;99.90
32476;DHT22;18929;48.008;10.882;2022-11-15T15:01:23;11.40;99.90
32476;DHT22;18929;48.008;10.882;2022-11-15T15:03:51;11.30;99.90
32476;DHT22;18929;48.008;10.882;2022-11-15T15:06:20;11.20;99.90
32476;DHT22;18929;48.008;10.882;2022-11-15T15:08:47;11.00;99.90
32476;DHT22;18929;48.008;10.882;2022-11-15T15:11:21;11.20;99.90
32476;DHT22;18929;48.008;10.882;2022-11-15T15:13:49;11.00;99.90
32476;DHT22;18929;48.008;10.882;2022-11-15T15:16:16;10.90;99.90
32476;DHT22;18929;48.008;10.882;2022-11-15T15:18:43;10.90;99.90
32476;DHT22;18929;48.008;10.882;2022-11-15T15:21:19;10.80;99.90
32476;DHT22;18929;48.008;10.882;2022-11-15T15:23:46;10.70;99.90
32476;DHT22;18929;48.008;10.882;2022-11-15T15:26:13;10.60;99.90
32476;DHT22;18929;48.008;10.882;2022-11-15T15:28:42;10.70;99.90
32476;DHT22;18929;48.008;10.882;2022-11-15T15:31:09;10.60;99.90
32476;DHT22;18929;48.008;10.882;2022-11-15T15:33:37;10.70;99.90
32476;DHT22;18929;48.008;10.882;2022-11-15T15:36:04;10.60;99.90
32476;DHT22;18929;48.008;10.882;2022-11-15T15:38:31;10.40;99.90
32476;DHT22;18929;48.008;10.882;2022-11-15T15:40:58;10.50;99.90
32476;DHT22;18929;48.008;10.882;2022-11-15T15:43:28;10.40;99.90
32476;DHT22;18929;48.008;10.882;2022-11-15T15:45:56;10.60;99.90
32476;DHT22;18929;48.008;10.882;2022-11-15T15:48:24;10.60;99.90
32476;DHT22;18929;48.008;10.882;2022-11-15T15:50:51;10.60;99.90
32476;DHT22;18929;48.008;10.882;2022-11-15T15:53:18;10.40;99.90
32476;DHT22;18929;48.008;10.882;2022-11-15T15:55:45;10.30;99.90
32476;DHT22;18929;48.008;10.882;2022-11-15T15:58:12;10.10;99.90
32476;DHT22;18929;48.008;10.882;2022-11-15T16:00:39;10.20;99.90
32476;DHT22;18929;48.008;10.882;2022-11-15T16:03:07;10.00;99.90
32476;DHT22;18929;48.008;10.882;2022-11-15T16:05:34;9.60;99.90
32476;DHT22;18929;48.008;10.882;2022-11-15T16:08:01;9.60;99.90
32476;DHT22;18929;48.008;10.882;2022-11-15T16:10:33;9.70;99.90
32476;DHT22;18929;48.008;10.882;2022-11-15T16:13:00;10.00;99.90